sensor_id;sensor_type;location;lat;lon;timestamp;P1;durP1;ratioP1;P2;durP2;ratioP2
23634;SDS011;11994;51.038;16.974;2022-08-19T00:01:41;9.58;;;8.15;;
23634;SDS011;11994;51.038;16.974;2022-08-19T00:04:10;11.48;;;7.95;;
23634;SDS011;11994;51.038;16.974;2022-08-19T00:06:40;14.33;;;7.80;;
23634;SDS011;11994;51.038;16.974;2022-08-19T00:11:37;13.43;;;8.03;;
23634;SDS011;11994;51.038;16.974;2022-08-19T00:14:05;11.85;;;8.58;;
23634;SDS011;11994;51.038;16.974;2022-08-19T00:16:35;9.05;;;8.05;;
23634;SDS011;11994;51.038;16.974;2022-08-19T00:19:03;12.45;;;8.05;;
23634;SDS011;11994;51.038;16.974;2022-08-19T00:21:30;10.68;;;8.20;;
23634;SDS011;11994;51.038;16.974;2022-08-19T00:23:57;12.78;;;8.80;;
23634;SDS011;11994;51.038;16.974;2022-08-19T00:26:28;12.25;;;8.63;;
23634;SDS011;11994;51.038;16.974;2022-08-19T00:28:53;12.78;;;8.08;;
23634;SDS011;11994;51.038;16.974;2022-08-19T00:31:20;12.70;;;8.40;;
23634;SDS011;11994;51.038;16.974;2022-08-19T00:33:46;14.55;;;8.38;;
23634;SDS011;11994;51.038;16.974;2022-08-19T00:36:14;13.48;;;7.78;;
23634;SDS011;11994;51.038;16.974;2022-08-19T00:38:41;10.20;;;7.42;;
23634;SDS011;11994;51.038;16.974;2022-08-19T00:41:09;11.22;;;7.75;;
23634;SDS011;11994;51.038;16.974;2022-08-19T00:43:38;10.23;;;7.20;;
23634;SDS011;11994;51.038;16.974;2022-08-19T00:46:05;10.00;;;7.28;;
23634;SDS011;11994;51.038;16.974;2022-08-19T00:48:32;12.07;;;8.03;;
23634;SDS011;11994;51.038;16.974;2022-08-19T00:50:59;16.45;;;8.20;;
23634;SDS011;11994;51.038;16.974;2022-08-19T00:53:27;13.48;;;8.40;;
23634;SDS011;11994;51.038;16.974;2022-08-19T00:55:56;12.03;;;8.78;;
23634;SDS011;11994;51.038;16.974;2022-08-19T00:58:26;11.68;;;7.90;;
23634;SDS011;11994;51.038;16.974;2022-08-19T01:00:56;13.00;;;8.45;;
23634;SDS011;11994;51.038;16.974;2022-08-19T01:03:22;10.48;;;7.30;;
23634;SDS011;11994;51.038;16.974;2022-08-19T01:05:49;11.22;;;8.05;;
23634;SDS011;11994;51.038;16.974;2022-08-19T01:08:17;11.90;;;8.25;;
23634;SDS011;11994;51.038;16.974;2022-08-19T01:10:47;13.22;;;9.00;;
23634;SDS011;11994;51.038;16.974;2022-08-19T01:13:24;12.40;;;8.48;;
23634;SDS011;11994;51.038;16.974;2022-08-19T01:15:55;12.98;;;8.28;;
23634;SDS011;11994;51.038;16.974;2022-08-19T01:18:28;12.80;;;8.20;;
23634;SDS011;11994;51.038;16.974;2022-08-19T01:20:58;12.25;;;8.50;;
23634;SDS011;11994;51.038;16.974;2022-08-19T01:23:28;13.08;;;7.35;;
23634;SDS011;11994;51.038;16.974;2022-08-19T01:25:55;13.62;;;8.28;;
23634;SDS011;11994;51.038;16.974;2022-08-19T01:28:23;9.53;;;8.08;;
23634;SDS011;11994;51.038;16.974;2022-08-19T01:30:52;11.93;;;8.18;;
23634;SDS011;11994;51.038;16.974;2022-08-19T01:33:19;12.25;;;7.90;;
23634;SDS011;11994;51.038;16.974;2022-08-19T01:35:46;10.15;;;8.25;;
23634;SDS011;11994;51.038;16.974;2022-08-19T01:38:23;10.18;;;8.38;;
23634;SDS011;11994;51.038;16.974;2022-08-19T01:40:49;12.15;;;7.78;;
23634;SDS011;11994;51.038;16.974;2022-08-19T01:43:15;9.53;;;7.65;;
23634;SDS011;11994;51.038;16.974;2022-08-19T01:45:44;9.63;;;8.00;;
23634;SDS011;11994;51.038;16.974;2022-08-19T01:48:11;11.12;;;7.62;;
23634;SDS011;11994;51.038;16.974;2022-08-19T01:50:38;10.78;;;8.38;;
23634;SDS011;11994;51.038;16.974;2022-08-19T01:53:06;12.80;;;8.88;;
23634;SDS011;11994;51.038;16.974;2022-08-19T01:55:36;12.82;;;8.40;;
23634;SDS011;11994;51.038;16.974;2022-08-19T01:58:06;11.83;;;7.90;;
23634;SDS011;11994;51.038;16.974;2022-08-19T02:00:36;9.75;;;8.10;;
23634;SDS011;11994;51.038;16.974;2022-08-19T02:03:03;12.45;;;9.88;;
23634;SDS011;11994;51.038;16.974;2022-08-19T02:05:29;15.93;;;14.13;;
23634;SDS011;11994;51.038;16.974;2022-08-19T02:07:56;15.78;;;11.33;;
23634;SDS011;11994;51.038;16.974;2022-08-19T02:10:22;15.40;;;9.60;;
23634;SDS011;11994;51.038;16.974;2022-08-19T02:12:49;11.55;;;8.73;;
23634;SDS011;11994;51.038;16.974;2022-08-19T02:15:16;11.65;;;8.73;;
23634;SDS011;11994;51.038;16.974;2022-08-19T02:17:46;11.40;;;8.33;;
23634;SDS011;11994;51.038;16.974;2022-08-19T02:20:13;10.75;;;7.72;;
23634;SDS011;11994;51.038;16.974;2022-08-19T02:22:40;14.07;;;8.33;;
23634;SDS011;11994;51.038;16.974;2022-08-19T02:25:08;10.48;;;8.35;;
23634;SDS011;11994;51.038;16.974;2022-08-19T02:27:37;10.93;;;8.38;;
23634;SDS011;11994;51.038;16.974;2022-08-19T02:30:04;10.53;;;8.30;;
23634;SDS011;11994;51.038;16.974;2022-08-19T02:32:32;12.00;;;9.18;;
23634;SDS011;11994;51.038;16.974;2022-08-19T02:34:59;11.55;;;9.10;;
23634;SDS011;11994;51.038;16.974;2022-08-19T02:37:25;10.35;;;8.13;;
23634;SDS011;11994;51.038;16.974;2022-08-19T02:40:10;9.75;;;7.92;;
23634;SDS011;11994;51.038;16.974;2022-08-19T02:42:36;10.80;;;8.93;;
23634;SDS011;11994;51.038;16.974;2022-08-19T02:45:02;12.53;;;10.48;;
23634;SDS011;11994;51.038;16.974;2022-08-19T02:47:30;14.80;;;10.18;;
23634;SDS011;11994;51.038;16.974;2022-08-19T02:49:56;15.80;;;10.25;;
23634;SDS011;11994;51.038;16.974;2022-08-19T02:52:23;14.50;;;10.00;;
23634;SDS011;11994;51.038;16.974;2022-08-19T02:54:51;14.18;;;8.55;;
23634;SDS011;11994;51.038;16.974;2022-08-19T02:57:17;11.25;;;7.95;;
23634;SDS011;11994;51.038;16.974;2022-08-19T02:59:43;11.43;;;8.53;;
23634;SDS011;11994;51.038;16.974;2022-08-19T03:02:09;13.45;;;8.18;;
23634;SDS011;11994;51.038;16.974;2022-08-19T03:04:35;12.43;;;9.18;;
23634;SDS011;11994;51.038;16.974;2022-08-19T03:07:01;14.70;;;10.40;;
23634;SDS011;11994;51.038;16.974;2022-08-19T03:09:28;14.75;;;10.75;;
23634;SDS011;11994;51.038;16.974;2022-08-19T03:11:55;12.37;;;10.20;;
23634;SDS011;11994;51.038;16.974;2022-08-19T03:14:21;11.97;;;8.63;;
23634;SDS011;11994;51.038;16.974;2022-08-19T03:16:50;10.45;;;8.43;;
23634;SDS011;11994;51.038;16.974;2022-08-19T03:19:18;11.70;;;8.87;;
23634;SDS011;11994;51.038;16.974;2022-08-19T03:21:46;10.60;;;8.65;;
23634;SDS011;11994;51.038;16.974;2022-08-19T03:24:13;11.60;;;8.65;;
23634;SDS011;11994;51.038;16.974;2022-08-19T03:26:41;10.50;;;9.13;;
23634;SDS011;11994;51.038;16.974;2022-08-19T03:29:11;14.23;;;10.18;;
23634;SDS011;11994;51.038;16.974;2022-08-19T03:31:38;15.23;;;9.53;;
23634;SDS011;11994;51.038;16.974;2022-08-19T03:34:06;12.50;;;9.20;;
23634;SDS011;11994;51.038;16.974;2022-08-19T03:36:32;16.48;;;9.13;;
23634;SDS011;11994;51.038;16.974;2022-08-19T03:38:59;15.03;;;9.58;;
23634;SDS011;11994;51.038;16.974;2022-08-19T03:41:27;14.68;;;10.00;;
23634;SDS011;11994;51.038;16.974;2022-08-19T03:44:00;11.60;;;9.23;;
23634;SDS011;11994;51.038;16.974;2022-08-19T03:46:27;13.03;;;10.25;;
23634;SDS011;11994;51.038;16.974;2022-08-19T03:48:56;11.47;;;10.17;;
23634;SDS011;11994;51.038;16.974;2022-08-19T03:51:29;11.43;;;9.58;;
23634;SDS011;11994;51.038;16.974;2022-08-19T03:54:00;12.60;;;9.08;;
23634;SDS011;11994;51.038;16.974;2022-08-19T03:56:29;12.00;;;9.53;;
23634;SDS011;11994;51.038;16.974;2022-08-19T03:58:58;14.30;;;10.10;;
23634;SDS011;11994;51.038;16.974;2022-08-19T04:01:25;13.85;;;10.35;;
23634;SDS011;11994;51.038;16.974;2022-08-19T04:03:55;14.10;;;10.70;;
23634;SDS011;11994;51.038;16.974;2022-08-19T04:06:23;12.90;;;10.58;;
23634;SDS011;11994;51.038;16.974;2022-08-19T04:08:56;15.83;;;9.98;;
23634;SDS011;11994;51.038;16.974;2022-08-19T04:11:25;16.00;;;9.68;;
23634;SDS011;11994;51.038;16.974;2022-08-19T04:13:55;14.87;;;10.68;;
23634;SDS011;11994;51.038;16.974;2022-08-19T04:16:22;13.62;;;11.15;;
23634;SDS011;11994;51.038;16.974;2022-08-19T04:18:55;17.15;;;11.25;;
23634;SDS011;11994;51.038;16.974;2022-08-19T04:21:27;15.45;;;12.05;;
23634;SDS011;11994;51.038;16.974;2022-08-19T04:23:51;14.47;;;10.95;;
23634;SDS011;11994;51.038;16.974;2022-08-19T04:26:25;13.83;;;9.93;;
23634;SDS011;11994;51.038;16.974;2022-08-19T04:28:56;14.98;;;11.00;;
23634;SDS011;11994;51.038;16.974;2022-08-19T04:31:25;14.78;;;10.85;;
23634;SDS011;11994;51.038;16.974;2022-08-19T04:33:55;18.35;;;12.20;;
23634;SDS011;11994;51.038;16.974;2022-08-19T04:36:25;16.95;;;12.70;;
23634;SDS011;11994;51.038;16.974;2022-08-19T04:39:01;13.83;;;10.78;;
23634;SDS011;11994;51.038;16.974;2022-08-19T04:41:24;13.95;;;11.03;;
23634;SDS011;11994;51.038;16.974;2022-08-19T04:44:09;15.88;;;11.08;;
23634;SDS011;11994;51.038;16.974;2022-08-19T04:46:37;16.93;;;12.15;;
23634;SDS011;11994;51.038;16.974;2022-08-19T04:49:05;18.42;;;11.90;;
23634;SDS011;11994;51.038;16.974;2022-08-19T04:51:33;17.85;;;13.00;;
23634;SDS011;11994;51.038;16.974;2022-08-19T04:54:00;17.20;;;11.80;;
23634;SDS011;11994;51.038;16.974;2022-08-19T04:56:27;17.90;;;11.57;;
23634;SDS011;11994;51.038;16.974;2022-08-19T04:58:54;15.10;;;12.03;;
23634;SDS011;11994;51.038;16.974;2022-08-19T05:01:25;16.45;;;11.43;;
23634;SDS011;11994;51.038;16.974;2022-08-19T05:03:53;18.17;;;12.73;;
23634;SDS011;11994;51.038;16.974;2022-08-19T05:06:21;18.67;;;13.18;;
23634;SDS011;11994;51.038;16.974;2022-08-19T05:08:49;16.85;;;11.83;;
23634;SDS011;11994;51.038;16.974;2022-08-19T05:11:17;18.20;;;11.18;;
23634;SDS011;11994;51.038;16.974;2022-08-19T05:13:49;18.82;;;11.65;;
23634;SDS011;11994;51.038;16.974;2022-08-19T05:16:17;18.67;;;11.93;;
23634;SDS011;11994;51.038;16.974;2022-08-19T05:18:47;14.65;;;12.03;;
23634;SDS011;11994;51.038;16.974;2022-08-19T05:21:32;17.82;;;11.97;;
23634;SDS011;11994;51.038;16.974;2022-08-19T05:24:18;17.48;;;10.55;;
23634;SDS011;11994;51.038;16.974;2022-08-19T05:26:47;11.90;;;10.65;;
23634;SDS011;11994;51.038;16.974;2022-08-19T05:29:18;13.83;;;11.38;;
23634;SDS011;11994;51.038;16.974;2022-08-19T05:31:46;17.07;;;12.07;;
23634;SDS011;11994;51.038;16.974;2022-08-19T05:34:14;20.12;;;13.62;;
23634;SDS011;11994;51.038;16.974;2022-08-19T05:36:43;14.90;;;12.33;;
23634;SDS011;11994;51.038;16.974;2022-08-19T05:39:14;17.42;;;12.30;;
23634;SDS011;11994;51.038;16.974;2022-08-19T05:41:43;16.65;;;12.43;;
23634;SDS011;11994;51.038;16.974;2022-08-19T05:44:11;16.85;;;12.60;;
23634;SDS011;11994;51.038;16.974;2022-08-19T05:46:38;15.03;;;12.47;;
23634;SDS011;11994;51.038;16.974;2022-08-19T05:49:05;16.12;;;12.60;;
23634;SDS011;11994;51.038;16.974;2022-08-19T05:51:33;21.75;;;13.00;;
23634;SDS011;11994;51.038;16.974;2022-08-19T05:54:02;17.07;;;12.47;;
23634;SDS011;11994;51.038;16.974;2022-08-19T05:56:30;15.80;;;12.47;;
23634;SDS011;11994;51.038;16.974;2022-08-19T05:58:57;13.03;;;11.63;;
23634;SDS011;11994;51.038;16.974;2022-08-19T06:01:24;16.50;;;13.15;;
23634;SDS011;11994;51.038;16.974;2022-08-19T06:03:52;17.23;;;12.40;;
23634;SDS011;11994;51.038;16.974;2022-08-19T06:06:19;15.40;;;12.45;;
23634;SDS011;11994;51.038;16.974;2022-08-19T06:08:45;17.45;;;11.88;;
23634;SDS011;11994;51.038;16.974;2022-08-19T06:13:50;15.78;;;12.13;;
23634;SDS011;11994;51.038;16.974;2022-08-19T06:16:19;18.85;;;12.40;;
23634;SDS011;11994;51.038;16.974;2022-08-19T06:18:53;14.70;;;12.98;;
23634;SDS011;11994;51.038;16.974;2022-08-19T06:21:22;15.60;;;12.80;;
23634;SDS011;11994;51.038;16.974;2022-08-19T06:23:52;16.12;;;13.55;;
23634;SDS011;11994;51.038;16.974;2022-08-19T06:26:20;13.13;;;11.80;;
23634;SDS011;11994;51.038;16.974;2022-08-19T06:28:47;17.10;;;11.73;;
23634;SDS011;11994;51.038;16.974;2022-08-19T06:31:14;17.48;;;12.03;;
23634;SDS011;11994;51.038;16.974;2022-08-19T06:33:43;17.45;;;11.63;;
23634;SDS011;11994;51.038;16.974;2022-08-19T06:36:24;15.30;;;11.38;;
23634;SDS011;11994;51.038;16.974;2022-08-19T06:38:55;14.83;;;11.57;;
23634;SDS011;11994;51.038;16.974;2022-08-19T06:41:25;14.25;;;11.45;;
23634;SDS011;11994;51.038;16.974;2022-08-19T06:43:52;15.00;;;11.40;;
23634;SDS011;11994;51.038;16.974;2022-08-19T06:46:19;12.88;;;10.48;;
23634;SDS011;11994;51.038;16.974;2022-08-19T06:48:46;16.67;;;10.65;;
23634;SDS011;11994;51.038;16.974;2022-08-19T06:51:17;12.13;;;10.68;;
23634;SDS011;11994;51.038;16.974;2022-08-19T06:53:47;14.38;;;10.75;;
23634;SDS011;11994;51.038;16.974;2022-08-19T06:56:16;18.52;;;11.38;;
23634;SDS011;11994;51.038;16.974;2022-08-19T06:58:46;16.02;;;10.85;;
23634;SDS011;11994;51.038;16.974;2022-08-19T07:01:14;18.17;;;10.50;;
23634;SDS011;11994;51.038;16.974;2022-08-19T07:03:41;15.60;;;10.03;;
23634;SDS011;11994;51.038;16.974;2022-08-19T07:06:11;18.23;;;10.13;;
23634;SDS011;11994;51.038;16.974;2022-08-19T07:08:42;14.50;;;9.53;;
23634;SDS011;11994;51.038;16.974;2022-08-19T07:11:11;18.15;;;9.40;;
23634;SDS011;11994;51.038;16.974;2022-08-19T07:13:41;13.83;;;8.98;;
23634;SDS011;11994;51.038;16.974;2022-08-19T07:16:13;13.00;;;9.08;;
23634;SDS011;11994;51.038;16.974;2022-08-19T07:18:39;11.22;;;8.70;;
23634;SDS011;11994;51.038;16.974;2022-08-19T07:21:07;14.25;;;8.45;;
23634;SDS011;11994;51.038;16.974;2022-08-19T07:23:37;14.30;;;8.63;;
23634;SDS011;11994;51.038;16.974;2022-08-19T07:26:05;17.50;;;8.63;;
23634;SDS011;11994;51.038;16.974;2022-08-19T07:28:34;10.75;;;8.30;;
23634;SDS011;11994;51.038;16.974;2022-08-19T07:31:02;12.55;;;8.68;;
23634;SDS011;11994;51.038;16.974;2022-08-19T07:33:28;14.95;;;8.35;;
23634;SDS011;11994;51.038;16.974;2022-08-19T07:35:56;10.63;;;7.17;;
23634;SDS011;11994;51.038;16.974;2022-08-19T07:38:22;11.28;;;7.45;;
23634;SDS011;11994;51.038;16.974;2022-08-19T07:40:49;13.85;;;7.75;;
23634;SDS011;11994;51.038;16.974;2022-08-19T07:43:16;10.30;;;7.42;;
23634;SDS011;11994;51.038;16.974;2022-08-19T07:45:44;9.95;;;7.55;;
23634;SDS011;11994;51.038;16.974;2022-08-19T07:48:12;11.50;;;7.62;;
23634;SDS011;11994;51.038;16.974;2022-08-19T07:50:39;12.47;;;7.95;;
23634;SDS011;11994;51.038;16.974;2022-08-19T07:53:05;10.20;;;7.53;;
23634;SDS011;11994;51.038;16.974;2022-08-19T07:55:32;12.90;;;7.50;;
23634;SDS011;11994;51.038;16.974;2022-08-19T07:57:59;13.20;;;8.13;;
23634;SDS011;11994;51.038;16.974;2022-08-19T08:00:25;10.80;;;8.13;;
23634;SDS011;11994;51.038;16.974;2022-08-19T08:02:51;13.13;;;7.67;;
23634;SDS011;11994;51.038;16.974;2022-08-19T08:05:18;11.35;;;7.95;;
23634;SDS011;11994;51.038;16.974;2022-08-19T08:08:02;13.08;;;7.60;;
23634;SDS011;11994;51.038;16.974;2022-08-19T08:10:47;11.30;;;8.08;;
23634;SDS011;11994;51.038;16.974;2022-08-19T08:13:13;11.18;;;7.33;;
23634;SDS011;11994;51.038;16.974;2022-08-19T08:15:39;10.65;;;7.08;;
23634;SDS011;11994;51.038;16.974;2022-08-19T08:18:06;12.28;;;6.37;;
23634;SDS011;11994;51.038;16.974;2022-08-19T08:20:32;8.75;;;6.67;;
23634;SDS011;11994;51.038;16.974;2022-08-19T08:22:58;9.20;;;6.28;;
23634;SDS011;11994;51.038;16.974;2022-08-19T08:25:43;12.07;;;6.35;;
23634;SDS011;11994;51.038;16.974;2022-08-19T08:28:09;12.37;;;6.08;;
23634;SDS011;11994;51.038;16.974;2022-08-19T08:30:35;13.00;;;5.92;;
23634;SDS011;11994;51.038;16.974;2022-08-19T08:33:03;12.80;;;6.20;;
23634;SDS011;11994;51.038;16.974;2022-08-19T08:35:30;11.45;;;6.10;;
23634;SDS011;11994;51.038;16.974;2022-08-19T08:37:56;11.33;;;6.40;;
23634;SDS011;11994;51.038;16.974;2022-08-19T08:46:08;10.50;;;5.83;;
23634;SDS011;11994;51.038;16.974;2022-08-19T08:48:51;8.23;;;5.62;;
23634;SDS011;11994;51.038;16.974;2022-08-19T08:51:36;9.33;;;6.10;;
23634;SDS011;11994;51.038;16.974;2022-08-19T08:54:10;13.68;;;6.00;;
23634;SDS011;11994;51.038;16.974;2022-08-19T08:56:39;10.93;;;6.47;;
23634;SDS011;11994;51.038;16.974;2022-08-19T08:59:14;12.95;;;6.87;;
23634;SDS011;11994;51.038;16.974;2022-08-19T09:01:57;9.98;;;6.37;;
23634;SDS011;11994;51.038;16.974;2022-08-19T09:04:24;11.03;;;5.90;;
23634;SDS011;11994;51.038;16.974;2022-08-19T09:15:16;12.28;;;6.42;;
23634;SDS011;11994;51.038;16.974;2022-08-19T09:17:48;11.85;;;6.05;;
23634;SDS011;11994;51.038;16.974;2022-08-19T09:22:47;9.53;;;6.03;;
23634;SDS011;11994;51.038;16.974;2022-08-19T09:25:16;11.68;;;6.35;;
23634;SDS011;11994;51.038;16.974;2022-08-19T09:27:47;8.68;;;5.83;;
23634;SDS011;11994;51.038;16.974;2022-08-19T09:30:19;13.25;;;6.20;;
23634;SDS011;11994;51.038;16.974;2022-08-19T09:32:49;10.00;;;5.72;;
23634;SDS011;11994;51.038;16.974;2022-08-19T09:35:17;15.23;;;6.20;;
23634;SDS011;11994;51.038;16.974;2022-08-19T09:37:48;11.63;;;5.97;;
23634;SDS011;11994;51.038;16.974;2022-08-19T09:40:15;13.22;;;5.45;;
23634;SDS011;11994;51.038;16.974;2022-08-19T09:42:42;10.40;;;5.40;;
23634;SDS011;11994;51.038;16.974;2022-08-19T09:45:16;12.33;;;5.30;;
23634;SDS011;11994;51.038;16.974;2022-08-19T09:47:46;9.30;;;5.05;;
23634;SDS011;11994;51.038;16.974;2022-08-19T09:50:14;12.78;;;5.55;;
23634;SDS011;11994;51.038;16.974;2022-08-19T09:52:40;9.20;;;5.03;;
23634;SDS011;11994;51.038;16.974;2022-08-19T09:55:08;10.13;;;5.50;;
23634;SDS011;11994;51.038;16.974;2022-08-19T09:57:36;10.45;;;5.42;;
23634;SDS011;11994;51.038;16.974;2022-08-19T10:00:03;13.05;;;5.40;;
23634;SDS011;11994;51.038;16.974;2022-08-19T10:02:33;15.18;;;5.78;;
23634;SDS011;11994;51.038;16.974;2022-08-19T10:04:59;13.80;;;5.10;;
23634;SDS011;11994;51.038;16.974;2022-08-19T10:07:43;12.00;;;5.60;;
23634;SDS011;11994;51.038;16.974;2022-08-19T10:10:09;9.88;;;5.35;;
23634;SDS011;11994;51.038;16.974;2022-08-19T10:12:36;10.18;;;4.70;;
23634;SDS011;11994;51.038;16.974;2022-08-19T10:15:03;11.28;;;4.90;;
23634;SDS011;11994;51.038;16.974;2022-08-19T10:17:31;9.13;;;4.97;;
23634;SDS011;11994;51.038;16.974;2022-08-19T10:19:58;12.45;;;5.22;;
23634;SDS011;11994;51.038;16.974;2022-08-19T10:22:25;9.00;;;5.10;;
23634;SDS011;11994;51.038;16.974;2022-08-19T10:24:51;12.80;;;5.78;;
23634;SDS011;11994;51.038;16.974;2022-08-19T10:27:17;12.65;;;4.80;;
23634;SDS011;11994;51.038;16.974;2022-08-19T10:29:43;9.78;;;5.03;;
23634;SDS011;11994;51.038;16.974;2022-08-19T10:32:09;12.00;;;5.37;;
23634;SDS011;11994;51.038;16.974;2022-08-19T10:34:36;10.10;;;5.08;;
23634;SDS011;11994;51.038;16.974;2022-08-19T10:37:03;10.20;;;5.35;;
23634;SDS011;11994;51.038;16.974;2022-08-19T10:39:31;9.60;;;4.80;;
23634;SDS011;11994;51.038;16.974;2022-08-19T10:41:59;13.62;;;5.28;;
23634;SDS011;11994;51.038;16.974;2022-08-19T10:44:31;10.75;;;4.72;;
23634;SDS011;11994;51.038;16.974;2022-08-19T10:47:00;10.15;;;4.97;;
23634;SDS011;11994;51.038;16.974;2022-08-19T10:49:27;12.18;;;5.15;;
23634;SDS011;11994;51.038;16.974;2022-08-19T10:51:54;12.60;;;5.15;;
23634;SDS011;11994;51.038;16.974;2022-08-19T10:54:39;13.43;;;4.90;;
23634;SDS011;11994;51.038;16.974;2022-08-19T10:57:24;23.35;;;5.25;;
23634;SDS011;11994;51.038;16.974;2022-08-19T10:59:52;7.00;;;4.87;;
23634;SDS011;11994;51.038;16.974;2022-08-19T11:02:17;10.00;;;4.62;;
23634;SDS011;11994;51.038;16.974;2022-08-19T11:04:43;9.60;;;4.42;;
23634;SDS011;11994;51.038;16.974;2022-08-19T11:07:09;7.55;;;4.17;;
23634;SDS011;11994;51.038;16.974;2022-08-19T11:09:39;8.13;;;4.30;;
23634;SDS011;11994;51.038;16.974;2022-08-19T11:12:06;9.43;;;3.90;;
23634;SDS011;11994;51.038;16.974;2022-08-19T11:14:34;10.23;;;4.30;;
23634;SDS011;11994;51.038;16.974;2022-08-19T11:17:02;7.90;;;3.30;;
23634;SDS011;11994;51.038;16.974;2022-08-19T11:19:29;6.62;;;3.05;;
23634;SDS011;11994;51.038;16.974;2022-08-19T11:21:56;5.42;;;2.90;;
23634;SDS011;11994;51.038;16.974;2022-08-19T11:24:23;4.83;;;2.90;;
23634;SDS011;11994;51.038;16.974;2022-08-19T11:26:51;5.53;;;2.92;;
23634;SDS011;11994;51.038;16.974;2022-08-19T11:29:24;5.00;;;2.95;;
23634;SDS011;11994;51.038;16.974;2022-08-19T11:31:51;7.55;;;2.90;;
23634;SDS011;11994;51.038;16.974;2022-08-19T11:34:19;6.37;;;2.65;;
23634;SDS011;11994;51.038;16.974;2022-08-19T11:36:50;9.55;;;2.80;;
23634;SDS011;11994;51.038;16.974;2022-08-19T11:39:17;5.00;;;2.60;;
23634;SDS011;11994;51.038;16.974;2022-08-19T11:41:46;9.10;;;3.30;;
23634;SDS011;11994;51.038;16.974;2022-08-19T11:44:13;4.50;;;2.90;;
23634;SDS011;11994;51.038;16.974;2022-08-19T11:46:40;6.33;;;3.00;;
23634;SDS011;11994;51.038;16.974;2022-08-19T11:49:09;4.78;;;2.90;;
23634;SDS011;11994;51.038;16.974;2022-08-19T11:51:35;4.10;;;2.83;;
23634;SDS011;11994;51.038;16.974;2022-08-19T11:54:01;5.25;;;2.83;;
23634;SDS011;11994;51.038;16.974;2022-08-19T11:56:30;6.42;;;2.90;;
23634;SDS011;11994;51.038;16.974;2022-08-19T11:58:57;6.45;;;2.58;;
23634;SDS011;11994;51.038;16.974;2022-08-19T12:01:24;5.62;;;2.80;;
23634;SDS011;11994;51.038;16.974;2022-08-19T12:03:52;6.15;;;3.00;;
23634;SDS011;11994;51.038;16.974;2022-08-19T12:06:21;6.00;;;3.10;;
23634;SDS011;11994;51.038;16.974;2022-08-19T12:08:52;8.40;;;3.17;;
23634;SDS011;11994;51.038;16.974;2022-08-19T12:11:18;5.85;;;2.92;;
23634;SDS011;11994;51.038;16.974;2022-08-19T12:13:44;7.28;;;2.98;;
23634;SDS011;11994;51.038;16.974;2022-08-19T12:16:12;5.92;;;2.98;;
23634;SDS011;11994;51.038;16.974;2022-08-19T12:18:41;7.37;;;2.67;;
23634;SDS011;11994;51.038;16.974;2022-08-19T12:21:10;7.30;;;3.00;;
23634;SDS011;11994;51.038;16.974;2022-08-19T12:23:39;5.42;;;3.25;;
23634;SDS011;11994;51.038;16.974;2022-08-19T12:26:06;5.85;;;3.00;;
23634;SDS011;11994;51.038;16.974;2022-08-19T12:28:34;5.60;;;2.80;;
23634;SDS011;11994;51.038;16.974;2022-08-19T12:31:00;7.33;;;2.75;;
23634;SDS011;11994;51.038;16.974;2022-08-19T12:33:26;5.45;;;2.95;;
23634;SDS011;11994;51.038;16.974;2022-08-19T12:35:53;6.75;;;2.95;;
23634;SDS011;11994;51.038;16.974;2022-08-19T12:38:23;6.87;;;2.77;;
23634;SDS011;11994;51.038;16.974;2022-08-19T12:40:49;7.33;;;3.20;;
23634;SDS011;11994;51.038;16.974;2022-08-19T12:43:17;5.45;;;2.83;;
23634;SDS011;11994;51.038;16.974;2022-08-19T12:45:45;6.33;;;3.00;;
23634;SDS011;11994;51.038;16.974;2022-08-19T12:48:11;4.80;;;2.62;;
23634;SDS011;11994;51.038;16.974;2022-08-19T12:50:39;7.12;;;2.87;;
23634;SDS011;11994;51.038;16.974;2022-08-19T12:53:06;7.42;;;2.60;;
23634;SDS011;11994;51.038;16.974;2022-08-19T12:55:32;10.28;;;3.02;;
23634;SDS011;11994;51.038;16.974;2022-08-19T12:57:59;6.95;;;2.70;;
23634;SDS011;11994;51.038;16.974;2022-08-19T13:00:27;9.40;;;2.75;;
23634;SDS011;11994;51.038;16.974;2022-08-19T13:02:54;5.92;;;2.58;;
23634;SDS011;11994;51.038;16.974;2022-08-19T13:05:25;6.72;;;2.77;;
23634;SDS011;11994;51.038;16.974;2022-08-19T13:07:51;8.13;;;3.00;;
23634;SDS011;11994;51.038;16.974;2022-08-19T13:10:21;9.68;;;2.85;;
23634;SDS011;11994;51.038;16.974;2022-08-19T13:12:50;8.53;;;3.02;;
23634;SDS011;11994;51.038;16.974;2022-08-19T13:15:19;9.58;;;2.92;;
23634;SDS011;11994;51.038;16.974;2022-08-19T13:17:48;9.75;;;3.20;;
23634;SDS011;11994;51.038;16.974;2022-08-19T13:20:17;5.10;;;2.80;;
23634;SDS011;11994;51.038;16.974;2022-08-19T13:22:45;10.38;;;3.20;;
23634;SDS011;11994;51.038;16.974;2022-08-19T13:25:13;6.50;;;3.00;;
23634;SDS011;11994;51.038;16.974;2022-08-19T13:27:43;6.45;;;2.75;;
23634;SDS011;11994;51.038;16.974;2022-08-19T13:30:10;8.88;;;3.12;;
23634;SDS011;11994;51.038;16.974;2022-08-19T13:32:57;8.75;;;3.20;;
23634;SDS011;11994;51.038;16.974;2022-08-19T13:35:39;6.97;;;2.95;;
23634;SDS011;11994;51.038;16.974;2022-08-19T13:38:12;7.20;;;2.62;;
23634;SDS011;11994;51.038;16.974;2022-08-19T13:40:41;8.45;;;3.00;;
23634;SDS011;11994;51.038;16.974;2022-08-19T13:43:07;7.67;;;2.92;;
23634;SDS011;11994;51.038;16.974;2022-08-19T13:45:34;6.90;;;2.90;;
23634;SDS011;11994;51.038;16.974;2022-08-19T13:48:02;6.62;;;3.17;;
23634;SDS011;11994;51.038;16.974;2022-08-19T13:50:32;7.05;;;2.85;;
23634;SDS011;11994;51.038;16.974;2022-08-19T13:53:01;8.65;;;2.92;;
23634;SDS011;11994;51.038;16.974;2022-08-19T13:55:28;9.30;;;3.25;;
23634;SDS011;11994;51.038;16.974;2022-08-19T13:57:56;7.30;;;2.87;;
23634;SDS011;11994;51.038;16.974;2022-08-19T14:00:27;7.80;;;2.70;;
23634;SDS011;11994;51.038;16.974;2022-08-19T14:02:56;10.03;;;2.87;;
23634;SDS011;11994;51.038;16.974;2022-08-19T14:05:23;9.63;;;2.60;;
23634;SDS011;11994;51.038;16.974;2022-08-19T14:07:51;9.10;;;2.90;;
23634;SDS011;11994;51.038;16.974;2022-08-19T14:10:18;8.30;;;2.70;;
23634;SDS011;11994;51.038;16.974;2022-08-19T14:12:46;6.92;;;2.90;;
23634;SDS011;11994;51.038;16.974;2022-08-19T14:15:12;5.62;;;2.42;;
23634;SDS011;11994;51.038;16.974;2022-08-19T14:17:40;7.62;;;2.75;;
23634;SDS011;11994;51.038;16.974;2022-08-19T14:20:09;7.30;;;2.93;;
23634;SDS011;11994;51.038;16.974;2022-08-19T14:22:38;5.85;;;2.60;;
23634;SDS011;11994;51.038;16.974;2022-08-19T14:25:07;6.67;;;2.70;;
23634;SDS011;11994;51.038;16.974;2022-08-19T14:27:37;5.53;;;3.40;;
23634;SDS011;11994;51.038;16.974;2022-08-19T14:30:07;8.85;;;3.62;;
23634;SDS011;11994;51.038;16.974;2022-08-19T14:32:39;5.53;;;3.20;;
23634;SDS011;11994;51.038;16.974;2022-08-19T14:35:08;7.00;;;3.58;;
23634;SDS011;11994;51.038;16.974;2022-08-19T14:37:37;6.30;;;3.47;;
23634;SDS011;11994;51.038;16.974;2022-08-19T14:40:04;4.85;;;3.05;;
23634;SDS011;11994;51.038;16.974;2022-08-19T14:42:31;6.47;;;3.60;;
23634;SDS011;11994;51.038;16.974;2022-08-19T14:44:59;7.25;;;3.60;;
23634;SDS011;11994;51.038;16.974;2022-08-19T14:47:25;6.17;;;3.60;;
23634;SDS011;11994;51.038;16.974;2022-08-19T14:49:52;8.75;;;3.80;;
23634;SDS011;11994;51.038;16.974;2022-08-19T14:52:19;8.28;;;3.62;;
23634;SDS011;11994;51.038;16.974;2022-08-19T14:54:45;10.85;;;4.30;;